Airfield :
LOGIN :

Register | Disclaimer

   EN    FR    IT 

 










Legend :    VFR   Marginal VFR   IFR   Intensive IFR   Very Intensive IFR
Visi :
Ceiling :
>= 8 km
>= 3000ft
5 to 8 km
1000 to 3000 ft
1500m to 5 km
500 to 1000 ft
800 to 1500m
200 to 500 ft
< 800m
< 200 ft
Symbols :   Thunderstorms  Fog  Heavy snow  Heavy precipitations  Wind > 20 kt
SIGMETs :     Misc.  Thunderstorms  Icing  Turbulence  Mountain Waves  Volcanic Ashes







- Airport Elevation : 49 ft
- IATA code : SEN
- Download approach charts


EGMC - Southend

CURRENT METAR :
  • 201850Z 26008KT 8000 -RA BKN004 03/02 Q1003

EXPIRED METARs :
  • 201820Z 01008KT 8000 -RA SCT005 BKN018 02/01 Q1002
  • 201750Z 02006KT 8000 -RA SCT005 BKN017 03/02 Q1001
  • 201720Z 02008KT 7000 -RA BKN005 03/02 Q1000
  • 201650Z 02009KT 8000 -RA BKN005 03/02 Q1000
  • 201620Z 02006KT 9000 -RA BKN005 03/02 Q0999

TAF AMD TAF EGMC
Valid from the 20 at 19:00 until the 21 at 03:00 UTC


201901Z 2019/2103 04005KT 9999 FEW005 SCT016
TEMPO 2019/2022 6000 -RA BKN004
PROB30
TEMPO 2019/2020 4000 DZ BR
PROB30
TEMPO 2023/2103 BKN014
No reported NOTAMs for that airfield.
1 SIGMET reported for the London FIR (EGTT) :
 
Severe turbulence
EGTT SIGMET 06 VALID 201500/201900 EGRR
EGTT LONDON FIR SEV TURB FCST S OF LINE N5000 W00200 - N5100 W00800 SFC/FL060 MOV S 15KT WKN=



MET'MAP, your aeronautical weather chart ! - Copyright ORBIFLY December 2007 - Disclaimer

ORBIFLY MET'MAP TEAM :

Programming & Development : Alexandra Zaïnal
Concept & Development : Baudouin d'Aumeries
Co-Development & Prog : Marc-Olivier Méhu
Technical & hardware support : Manuel Goepfert

Contact : metmap@orbifly.com




SOURCES & CREDITS :

   NOAA